Terminal Aerodrome Forecast
Issued by NWS

Home | Current Version | Previous Version | Text Only | Print | Product List | Glossary On
Versions: 1 2 3 4 5 6 7 8 9 10 11 12 13 14 15
950
FTUS45 KRIW 271409 AAA
TAFRKS
TAF AMD
KRKS 271409Z 2714/2812 VRB04KT P6SM SCT018 BKN026
     FM271500 33008KT P6SM FEW030 SCT060
     FM271900 31010G17KT P6SM SCT070
     FM280200 VRB06KT P6SM FEW090=

USA.gov is the U.S. government's official web portal to all federal, state and local government web resources and services.